createdAt,value
2018-11-07T00:01:46.852Z,14.07
2018-11-07T00:04:15.288Z,15.90
2018-11-07T00:06:43.767Z,14.90
2018-11-07T00:09:12.185Z,10.17
2018-11-07T00:11:40.620Z,10.03
2018-11-07T00:14:09.151Z,10.67
2018-11-07T00:16:37.620Z,8.53
2018-11-07T00:19:06.481Z,9.73
2018-11-07T00:21:34.940Z,12.53
2018-11-07T00:24:03.399Z,11.27
2018-11-07T00:26:31.939Z,14.40
2018-11-07T00:29:00.317Z,10.50
2018-11-07T00:31:28.759Z,11.50
2018-11-07T00:33:57.189Z,10.53
2018-11-07T00:36:25.605Z,10.70
2018-11-07T00:38:54.049Z,7.60
2018-11-07T00:41:22.500Z,9.13
2018-11-07T00:43:50.948Z,9.87
2018-11-07T00:46:19.364Z,8.00
2018-11-07T00:48:47.788Z,8.87
2018-11-07T00:51:16.320Z,11.33
2018-11-07T00:53:44.755Z,9.10
2018-11-07T00:56:13.160Z,9.07
2018-11-07T00:58:41.590Z,8.00
2018-11-07T01:01:10.005Z,7.27
2018-11-07T01:03:38.440Z,11.17
2018-11-07T01:06:06.876Z,8.50
2018-11-07T01:08:35.329Z,8.50
2018-11-07T01:11:03.746Z,5.60
2018-11-07T01:13:32.197Z,6.97
2018-11-07T01:16:00.618Z,8.10
2018-11-07T01:18:29.069Z,11.33
2018-11-07T01:20:57.535Z,12.23
2018-11-07T01:23:25.983Z,12.67
2018-11-07T01:25:54.398Z,12.20
2018-11-07T01:28:22.900Z,18.17
2018-11-07T01:30:51.337Z,16.67
2018-11-07T01:33:19.753Z,13.10
2018-11-07T01:35:48.199Z,15.70
2018-11-07T01:38:16.748Z,11.83
2018-11-07T01:40:45.183Z,8.23
2018-11-07T01:43:13.592Z,8.90
2018-11-07T01:45:42.045Z,8.43
2018-11-07T01:48:10.464Z,10.73
2018-11-07T01:50:38.896Z,12.03
2018-11-07T01:53:07.341Z,10.00
2018-11-07T01:55:35.769Z,11.27
2018-11-07T01:58:04.215Z,7.03
2018-11-07T02:00:32.663Z,9.80
2018-11-07T02:03:01.094Z,10.20
2018-11-07T02:05:29.533Z,7.73
2018-11-07T02:07:57.947Z,11.70
2018-11-07T02:10:26.391Z,12.70
2018-11-07T02:12:54.836Z,10.37
2018-11-07T02:15:23.318Z,13.20
2018-11-07T02:17:51.729Z,11.57
2018-11-07T02:20:20.200Z,7.30
2018-11-07T02:22:48.625Z,8.27
2018-11-07T02:25:17.069Z,6.83
2018-11-07T02:27:45.496Z,10.50
2018-11-07T02:30:15.424Z,9.20
2018-11-07T02:32:44.289Z,11.10
2018-11-07T02:35:12.760Z,9.33
2018-11-07T02:37:41.467Z,6.87
2018-11-07T02:40:10.136Z,6.97
2018-11-07T02:42:38.725Z,8.00
2018-11-07T02:45:07.243Z,7.70
2018-11-07T02:47:35.661Z,9.50
2018-11-07T02:50:04.373Z,10.60
2018-11-07T02:52:32.789Z,10.73
2018-11-07T02:55:01.212Z,7.80
2018-11-07T02:57:29.652Z,8.07
2018-11-07T02:59:58.068Z,7.77
2018-11-07T03:02:26.557Z,11.63
2018-11-07T03:04:54.985Z,13.10
2018-11-07T03:07:23.416Z,11.10
2018-11-07T03:09:51.889Z,12.57
2018-11-07T03:12:20.308Z,12.20
2018-11-07T03:14:48.724Z,11.20
2018-11-07T03:17:17.169Z,12.90
2018-11-07T03:19:45.589Z,12.80
2018-11-07T03:22:14.080Z,12.67
2018-11-07T03:24:42.504Z,10.60
2018-11-07T03:27:10.996Z,9.50
2018-11-07T03:29:39.407Z,7.57
2018-11-07T03:32:07.832Z,6.83
2018-11-07T03:34:36.253Z,9.30
2018-11-07T03:37:04.764Z,8.37
2018-11-07T03:39:33.184Z,9.33
2018-11-07T03:42:01.624Z,9.67
2018-11-07T03:44:30.029Z,13.10
2018-11-07T03:46:58.483Z,12.20
2018-11-07T03:49:26.899Z,10.60
2018-11-07T03:51:55.332Z,10.50
2018-11-07T03:54:23.740Z,8.90
2018-11-07T03:56:52.178Z,10.20
2018-11-07T03:59:20.664Z,8.90
2018-11-07T04:01:49.125Z,9.03
2018-11-07T04:04:17.556Z,14.17
2018-11-07T04:06:45.964Z,13.90
2018-11-07T04:09:14.439Z,14.83
2018-11-07T04:11:43.775Z,13.77
2018-11-07T04:14:12.243Z,11.83
2018-11-07T04:16:40.651Z,9.93
2018-11-07T04:19:09.446Z,8.73
2018-11-07T04:21:38.325Z,11.37
2018-11-07T04:24:06.772Z,10.13
2018-11-07T04:26:36.403Z,10.50
2018-11-07T04:29:05.033Z,9.87
2018-11-07T04:31:33.490Z,12.90
2018-11-07T04:34:01.968Z,12.17
2018-11-07T04:36:30.414Z,10.07
2018-11-07T04:38:58.861Z,12.40
2018-11-07T04:41:27.290Z,12.67
2018-11-07T04:43:55.740Z,11.33
2018-11-07T04:46:24.161Z,15.93
2018-11-07T04:48:52.753Z,13.10
2018-11-07T04:51:21.233Z,11.20
2018-11-07T04:53:49.713Z,15.20
2018-11-07T04:56:18.148Z,14.13
2018-11-07T04:58:46.623Z,15.10
2018-11-07T05:01:15.043Z,11.33
2018-11-07T05:03:43.476Z,10.57
2018-11-07T05:06:11.892Z,10.97
2018-11-07T05:08:40.393Z,11.57
2018-11-07T05:11:08.797Z,10.90
2018-11-07T05:13:37.404Z,12.77
2018-11-07T05:16:06.003Z,10.23
2018-11-07T05:18:34.416Z,11.77
2018-11-07T05:21:02.864Z,13.47
2018-11-07T05:23:31.294Z,12.93
2018-11-07T05:25:59.748Z,15.87
2018-11-07T05:28:28.174Z,12.30
2018-11-07T05:30:56.616Z,15.60
2018-11-07T05:33:25.028Z,15.93
2018-11-07T05:35:53.477Z,12.00
2018-11-07T05:38:21.904Z,13.27
2018-11-07T05:40:50.339Z,17.83
2018-11-07T05:43:18.781Z,14.07
2018-11-07T05:45:47.216Z,19.63
2018-11-07T05:48:15.695Z,12.20
2018-11-07T05:50:44.126Z,11.90
2018-11-07T05:53:12.557Z,10.50
2018-11-07T05:55:40.996Z,11.17
2018-11-07T05:58:09.420Z,12.30
2018-11-07T06:00:37.964Z,13.20
2018-11-07T06:03:06.382Z,17.00
2018-11-07T06:05:34.825Z,14.00
2018-11-07T06:08:03.245Z,14.93
2018-11-07T06:10:31.685Z,13.47
2018-11-07T06:13:00.104Z,12.60
2018-11-07T06:15:28.524Z,14.57
2018-11-07T06:17:57.967Z,13.57
2018-11-07T06:20:29.702Z,15.00
2018-11-07T06:22:58.214Z,13.20
2018-11-07T06:25:26.650Z,12.30
2018-11-07T06:27:55.112Z,14.60
2018-11-07T06:30:23.604Z,17.03
2018-11-07T06:32:52.073Z,13.00
2018-11-07T06:35:20.529Z,16.00
2018-11-07T06:37:49.016Z,14.60
2018-11-07T06:40:17.471Z,14.37
2018-11-07T06:42:45.940Z,11.00
2018-11-07T06:45:14.386Z,13.40
2018-11-07T06:47:42.853Z,14.80
2018-11-07T06:50:13.784Z,13.40
2018-11-07T06:52:42.423Z,12.53
2018-11-07T06:55:11.560Z,14.17
2018-11-07T06:57:40.303Z,13.37
2018-11-07T07:00:11.819Z,13.60
2018-11-07T07:02:41.123Z,14.57
2018-11-07T07:05:09.572Z,14.63
2018-11-07T07:07:38.424Z,10.63
2018-11-07T07:10:09.211Z,16.10
2018-11-07T07:12:37.708Z,15.20
2018-11-07T07:15:08.111Z,15.03
2018-11-07T07:17:36.675Z,18.77
2018-11-07T07:20:08.047Z,16.27
2018-11-07T07:22:36.516Z,16.13
2018-11-07T07:25:06.340Z,15.40
2018-11-07T07:27:34.996Z,13.00
2018-11-07T07:30:03.928Z,15.93
2018-11-07T07:32:32.308Z,14.77
2018-11-07T07:35:00.740Z,11.50
2018-11-07T07:37:29.205Z,12.27
2018-11-07T07:39:57.644Z,14.60
2018-11-07T07:42:26.120Z,13.87
2018-11-07T07:44:54.560Z,15.30
2018-11-07T07:47:23.004Z,15.60
2018-11-07T07:49:51.461Z,10.30
2018-11-07T07:52:19.964Z,14.90
2018-11-07T07:54:48.492Z,13.10
2018-11-07T07:57:16.931Z,18.03
2018-11-07T07:59:45.392Z,17.97
2018-11-07T08:02:13.833Z,10.80
2018-11-07T08:04:42.287Z,9.87
2018-11-07T08:07:10.713Z,9.13
2018-11-07T08:09:39.176Z,10.63
2018-11-07T08:12:07.612Z,9.80
2018-11-07T08:14:36.080Z,13.10
2018-11-07T08:17:04.571Z,13.00
2018-11-07T08:19:33.020Z,16.63
2018-11-07T08:22:01.469Z,10.83
2018-11-07T08:24:29.908Z,17.53
2018-11-07T08:26:58.332Z,11.20
2018-11-07T08:29:26.772Z,12.77
2018-11-07T08:31:55.204Z,10.83
2018-11-07T08:34:23.693Z,22.40
2018-11-07T08:36:52.228Z,19.10
2018-11-07T08:39:20.679Z,13.73
2018-11-07T08:41:49.104Z,11.87
2018-11-07T08:44:17.571Z,17.60
2018-11-07T08:46:45.998Z,16.10
2018-11-07T08:49:14.447Z,15.80
2018-11-07T08:51:42.887Z,14.43
2018-11-07T08:54:11.326Z,13.87
2018-11-07T08:56:39.755Z,13.97
2018-11-07T08:59:08.191Z,15.40
2018-11-07T09:04:05.380Z,13.17
2018-11-07T09:06:33.844Z,13.37
2018-11-07T09:09:02.352Z,15.53
2018-11-07T09:11:30.788Z,16.80
2018-11-07T09:13:59.228Z,15.30
2018-11-07T09:16:27.723Z,11.60
2018-11-07T09:18:56.144Z,14.00
2018-11-07T09:21:24.592Z,15.57
2018-11-07T09:23:53.032Z,13.10
2018-11-07T09:26:21.479Z,15.53
2018-11-07T09:28:49.916Z,19.80
2018-11-07T09:31:18.368Z,14.30
2018-11-07T09:33:46.792Z,15.53
2018-11-07T09:36:15.236Z,17.87
2018-11-07T09:38:43.656Z,19.13
2018-11-07T09:41:12.115Z,15.00
2018-11-07T09:43:40.583Z,16.27
2018-11-07T09:46:09.036Z,14.10
2018-11-07T09:48:37.461Z,15.57
2018-11-07T09:51:06.367Z,17.37
2018-11-07T09:53:34.797Z,14.80
2018-11-07T09:56:03.280Z,16.03
2018-11-07T09:58:31.729Z,13.77
2018-11-07T10:01:00.189Z,17.00
2018-11-07T10:03:28.615Z,14.50
2018-11-07T10:05:57.065Z,14.53
2018-11-07T10:08:25.489Z,15.80
2018-11-07T10:10:53.912Z,22.47
2018-11-07T10:13:22.366Z,14.57
2018-11-07T10:15:50.779Z,15.77
2018-11-07T10:18:19.292Z,17.83
2018-11-07T10:20:47.752Z,16.10
2018-11-07T10:23:16.213Z,14.10
2018-11-07T10:25:44.655Z,18.93
2018-11-07T10:28:13.344Z,16.20
2018-11-07T10:30:41.608Z,19.13
2018-11-07T10:33:10.060Z,18.33
2018-11-07T10:35:38.490Z,15.73
2018-11-07T10:38:07.176Z,18.10
2018-11-07T10:40:35.495Z,17.47
2018-11-07T10:43:03.973Z,24.93
2018-11-07T10:45:32.425Z,18.97
2018-11-07T10:48:00.887Z,20.83
2018-11-07T10:50:29.328Z,19.47
2018-11-07T10:52:57.783Z,19.93
2018-11-07T10:55:26.232Z,20.33
2018-11-07T10:57:54.675Z,21.40
2018-11-07T11:00:28.337Z,19.53
2018-11-07T11:03:09.060Z,21.53
2018-11-07T11:05:38.528Z,22.60
2018-11-07T11:08:07.328Z,24.60
2018-11-07T11:10:35.792Z,21.60
2018-11-07T11:13:04.515Z,19.77
2018-11-07T11:15:32.945Z,23.37
2018-11-07T11:18:01.473Z,21.07
2018-11-07T11:20:29.907Z,27.10
2018-11-07T11:22:58.352Z,26.00
2018-11-07T11:25:26.824Z,27.00
2018-11-07T11:27:55.255Z,25.97
2018-11-07T11:30:23.743Z,26.97
2018-11-07T11:32:52.171Z,22.57
2018-11-07T11:35:20.699Z,28.97
2018-11-07T11:37:49.079Z,29.43
2018-11-07T11:40:17.549Z,27.93
2018-11-07T11:42:46.108Z,29.33
2018-11-07T11:45:15.649Z,30.43
2018-11-07T11:47:44.405Z,24.10
2018-11-07T11:50:17.845Z,31.40
2018-11-07T11:52:47.207Z,29.40
2018-11-07T11:55:15.747Z,31.53
2018-11-07T11:57:44.697Z,32.10
2018-11-07T12:00:15.335Z,32.47
2018-11-07T12:02:44.220Z,33.30
2018-11-07T12:05:13.739Z,28.73
2018-11-07T12:07:42.516Z,26.87
2018-11-07T12:10:18.087Z,31.73
2018-11-07T12:12:47.715Z,28.50
2018-11-07T12:18:06.522Z,36.20
2018-11-07T12:20:35.049Z,31.37
2018-11-07T12:23:03.550Z,38.03
2018-11-07T12:25:32.048Z,31.37
2018-11-07T12:28:00.558Z,30.87
2018-11-07T12:30:29.213Z,34.73
2018-11-07T12:32:57.678Z,32.63
2018-11-07T12:35:26.161Z,31.43
2018-11-07T12:37:54.628Z,34.57
2018-11-07T12:40:23.121Z,29.67
2018-11-07T12:42:51.621Z,28.73
2018-11-07T12:45:20.148Z,28.60
2018-11-07T12:47:48.617Z,28.93
2018-11-07T12:50:21.602Z,32.37
2018-11-07T12:52:50.060Z,29.70
2018-11-07T12:55:19.310Z,32.33
2018-11-07T12:57:47.805Z,28.20
2018-11-07T13:00:25.393Z,40.87
2018-11-07T13:02:53.963Z,33.20
2018-11-07T13:05:23.173Z,33.63
2018-11-07T13:07:52.493Z,33.80
2018-11-07T13:10:21.836Z,25.13
2018-11-07T13:12:50.888Z,36.63
2018-11-07T13:15:19.365Z,29.17
2018-11-07T13:17:48.566Z,26.50
2018-11-07T13:20:18.872Z,32.93
2018-11-07T13:22:48.709Z,31.03
2018-11-07T13:25:17.682Z,35.07
2018-11-07T13:27:46.202Z,33.03
2018-11-07T13:30:15.877Z,36.83
2018-11-07T13:32:44.356Z,29.27
2018-11-07T13:35:13.775Z,34.43
2018-11-07T13:37:43.248Z,32.97
2018-11-07T13:40:16.877Z,41.50
2018-11-07T13:42:56.877Z,33.30
2018-11-07T13:45:25.409Z,38.03
2018-11-07T13:47:54.674Z,37.70
2018-11-07T13:50:23.160Z,42.00
2018-11-07T13:52:51.813Z,36.73
2018-11-07T13:55:20.244Z,37.20
2018-11-07T13:57:49.404Z,31.43
2018-11-07T14:00:20.953Z,32.17
2018-11-07T14:02:50.124Z,34.73
2018-11-07T14:05:18.577Z,36.07
2018-11-07T14:07:47.000Z,34.60
2018-11-07T14:10:23.453Z,39.97
2018-11-07T14:12:52.348Z,31.37
2018-11-07T14:15:20.864Z,31.77
2018-11-07T14:17:49.346Z,35.07
2018-11-07T14:20:17.825Z,36.70
2018-11-07T14:22:46.277Z,38.80
2018-11-07T14:25:15.060Z,36.30
2018-11-07T14:27:43.651Z,34.13
2018-11-07T14:30:13.868Z,39.17
2018-11-07T14:32:51.991Z,35.07
2018-11-07T14:35:20.868Z,27.90
2018-11-07T14:37:49.308Z,38.10
2018-11-07T14:40:17.759Z,31.97
2018-11-07T14:42:46.181Z,35.63
2018-11-07T14:45:14.632Z,35.47
2018-11-07T14:47:43.349Z,30.77
2018-11-07T14:50:12.493Z,41.73
2018-11-07T14:52:41.076Z,38.53
2018-11-07T14:55:10.359Z,37.40
2018-11-07T14:57:38.815Z,44.30
2018-11-07T15:00:09.748Z,43.73
2018-11-07T15:02:38.483Z,46.23
2018-11-07T15:05:08.420Z,39.93
2018-11-07T15:07:36.827Z,38.97
2018-11-07T15:10:06.437Z,38.67
2018-11-07T15:12:34.855Z,42.00
2018-11-07T15:15:03.336Z,50.30
2018-11-07T15:17:31.745Z,49.50
2018-11-07T15:20:00.175Z,54.03
2018-11-07T15:22:28.609Z,46.53
2018-11-07T15:24:57.090Z,46.10
2018-11-07T15:27:25.592Z,40.20
2018-11-07T15:29:54.004Z,41.30
2018-11-07T15:32:22.437Z,42.73
2018-11-07T15:34:50.915Z,42.13
2018-11-07T15:37:19.363Z,45.53
2018-11-07T15:39:47.789Z,44.43
2018-11-07T15:42:16.257Z,40.50
2018-11-07T15:44:44.664Z,47.47
2018-11-07T15:47:13.108Z,42.83
2018-11-07T15:49:46.753Z,40.13
2018-11-07T15:52:15.176Z,40.93
2018-11-07T15:54:43.595Z,35.37
2018-11-07T15:57:12.032Z,50.20
2018-11-07T15:59:40.440Z,40.03
2018-11-07T16:02:08.868Z,41.93
2018-11-07T16:04:37.275Z,45.17
2018-11-07T16:07:05.737Z,37.87
2018-11-07T16:09:34.144Z,43.97
2018-11-07T16:12:02.577Z,36.30
2018-11-07T16:14:31.002Z,43.07
2018-11-07T16:16:59.436Z,37.13
2018-11-07T16:19:27.849Z,46.13
2018-11-07T16:21:56.307Z,44.57
2018-11-07T16:24:24.719Z,40.63
2018-11-07T16:26:53.196Z,31.13
2018-11-07T16:29:21.628Z,29.40
2018-11-07T16:31:50.152Z,30.80
2018-11-07T16:34:18.492Z,36.93
2018-11-07T16:36:46.885Z,35.30
2018-11-07T16:39:15.312Z,36.43
2018-11-07T16:41:43.872Z,34.33
2018-11-07T16:44:12.163Z,33.17
2018-11-07T16:46:40.576Z,35.30
2018-11-07T16:49:09.008Z,35.33
2018-11-07T16:51:37.411Z,27.23
2018-11-07T16:54:07.609Z,23.47
2018-11-07T16:56:36.236Z,31.37
2018-11-07T16:59:04.893Z,25.47
2018-11-07T17:01:33.293Z,28.13
2018-11-07T17:04:01.793Z,30.33
2018-11-07T17:06:30.204Z,37.93
2018-11-07T17:08:58.656Z,42.60
2018-11-07T17:11:27.067Z,28.87
2018-11-07T17:13:55.492Z,28.13
2018-11-07T17:16:23.912Z,35.40
2018-11-07T17:18:52.332Z,27.20
2018-11-07T17:21:20.732Z,25.90
2018-11-07T17:23:49.248Z,30.73
2018-11-07T17:26:17.619Z,29.80
2018-11-07T17:28:46.060Z,34.47
2018-11-07T17:31:14.744Z,40.53
2018-11-07T17:33:43.160Z,29.27
2018-11-07T17:36:11.604Z,26.03
2018-11-07T17:38:40.125Z,23.50
2018-11-07T17:41:08.467Z,23.43
2018-11-07T17:46:27.457Z,21.90
2018-11-07T17:48:55.888Z,32.23
2018-11-07T17:51:24.320Z,25.37
2018-11-07T17:53:52.789Z,32.23
2018-11-07T17:56:21.357Z,33.50
2018-11-07T17:58:49.767Z,29.47
2018-11-07T18:01:18.200Z,24.10
2018-11-07T18:03:47.262Z,24.00
2018-11-07T18:06:15.825Z,25.13
2018-11-07T18:08:46.077Z,24.47
2018-11-07T18:11:15.013Z,26.40
2018-11-07T18:13:43.484Z,24.63
2018-11-07T18:18:34.721Z,26.07
2018-11-07T18:21:03.316Z,25.90
2018-11-07T18:23:31.727Z,25.33
2018-11-07T18:26:00.193Z,27.20
2018-11-07T18:28:28.612Z,23.00
2018-11-07T18:30:57.048Z,46.43
2018-11-07T18:33:25.519Z,31.30
2018-11-07T18:35:54.048Z,27.60
2018-11-07T18:38:22.447Z,21.37
2018-11-07T18:40:50.900Z,60.20
2018-11-07T18:43:19.329Z,22.63
2018-11-07T18:45:47.788Z,54.23
2018-11-07T18:48:16.208Z,27.83
2018-11-07T18:50:44.690Z,69.80
2018-11-07T18:53:13.144Z,37.20
2018-11-07T18:58:32.263Z,48.60
2018-11-07T19:01:00.686Z,16.80
2018-11-07T19:03:29.101Z,48.90
2018-11-07T19:05:57.545Z,17.17
2018-11-07T19:08:25.980Z,19.23
2018-11-07T19:10:54.407Z,31.23
2018-11-07T19:13:22.829Z,18.03
2018-11-07T19:15:51.263Z,18.43
2018-11-07T19:18:19.684Z,17.53
2018-11-07T19:20:48.115Z,25.33
2018-11-07T19:23:16.533Z,32.70
2018-11-07T19:25:44.980Z,20.63
2018-11-07T19:28:13.416Z,39.23
2018-11-07T19:30:41.896Z,16.80
2018-11-07T19:33:10.462Z,45.97
2018-11-07T19:35:38.784Z,19.90
2018-11-07T19:38:07.315Z,21.47
2018-11-07T19:40:35.760Z,21.97
2018-11-07T19:43:04.205Z,26.33
2018-11-07T19:45:32.636Z,27.93
2018-11-07T19:48:01.076Z,27.43
2018-11-07T19:50:29.493Z,23.40
2018-11-07T19:52:57.929Z,22.50
2018-11-07T19:55:26.365Z,25.27
2018-11-07T19:58:00.453Z,19.43
2018-11-07T20:00:28.961Z,45.20
2018-11-07T20:02:57.514Z,21.43
2018-11-07T20:05:25.964Z,18.07
2018-11-07T20:07:54.406Z,16.73
2018-11-07T20:10:23.129Z,20.87
2018-11-07T20:12:51.524Z,29.17
2018-11-07T20:15:20.633Z,23.10
2018-11-07T20:17:49.331Z,18.67
2018-11-07T20:20:18.010Z,18.00
2018-11-07T20:22:46.461Z,17.43
2018-11-07T20:25:15.372Z,25.20
2018-11-07T20:27:44.193Z,19.40
2018-11-07T20:30:14.083Z,20.40
2018-11-07T20:32:42.792Z,16.43
2018-11-07T20:35:12.576Z,19.40
2018-11-07T20:37:41.024Z,16.80
2018-11-07T20:40:11.836Z,17.77
2018-11-07T20:42:40.323Z,18.63
2018-11-07T20:45:09.700Z,17.10
2018-11-07T20:47:38.576Z,19.57
2018-11-07T20:50:10.704Z,18.90
2018-11-07T20:52:39.473Z,20.37
2018-11-07T20:55:08.250Z,15.63
2018-11-07T20:57:37.015Z,16.57
2018-11-07T21:00:09.857Z,21.87
2018-11-07T21:02:38.711Z,18.70
2018-11-07T21:05:17.147Z,30.33
2018-11-07T21:07:45.621Z,16.77
2018-11-07T21:10:17.814Z,18.77
2018-11-07T21:12:46.652Z,16.97
2018-11-07T21:15:16.217Z,16.77
2018-11-07T21:17:45.048Z,15.70
2018-11-07T21:20:13.569Z,40.07
2018-11-07T21:22:42.423Z,17.60
2018-11-07T21:25:11.237Z,17.93
2018-11-07T21:27:39.897Z,18.70
2018-11-07T21:30:10.868Z,17.23
2018-11-07T21:32:39.629Z,19.23
2018-11-07T21:35:08.221Z,18.17
2018-11-07T21:37:37.000Z,15.67
2018-11-07T21:40:07.737Z,17.90
2018-11-07T21:42:36.180Z,14.10
2018-11-07T21:45:04.968Z,14.77
2018-11-07T21:47:33.396Z,16.13
2018-11-07T21:50:01.876Z,15.00
2018-11-07T21:52:30.343Z,20.30
2018-11-07T21:54:58.783Z,23.77
2018-11-07T21:57:27.212Z,21.50
2018-11-07T21:59:55.652Z,19.43
2018-11-07T22:02:24.088Z,18.73
2018-11-07T22:04:52.532Z,16.47
2018-11-07T22:07:20.967Z,19.80
2018-11-07T22:09:49.420Z,20.00
2018-11-07T22:12:17.856Z,21.90
2018-11-07T22:14:46.503Z,19.80
2018-11-07T22:17:14.936Z,23.60
2018-11-07T22:19:43.356Z,18.73
2018-11-07T22:22:11.817Z,20.67
2018-11-07T22:24:40.251Z,20.77
2018-11-07T22:27:08.713Z,21.87
2018-11-07T22:29:37.149Z,21.77
2018-11-07T22:32:05.664Z,23.00
2018-11-07T22:34:34.341Z,24.00
2018-11-07T22:37:02.788Z,21.20
2018-11-07T22:39:31.229Z,21.07
2018-11-07T22:41:59.676Z,19.13
2018-11-07T22:44:28.112Z,16.53
2018-11-07T22:46:56.573Z,23.53
2018-11-07T22:49:25.000Z,19.27
2018-11-07T22:54:44.214Z,23.90
2018-11-07T22:57:13.110Z,18.90
2018-11-07T22:59:41.569Z,17.90
2018-11-07T23:02:10.059Z,14.47
2018-11-07T23:04:38.561Z,17.10
2018-11-07T23:07:07.033Z,11.97
2018-11-07T23:09:35.481Z,14.17
2018-11-07T23:12:03.968Z,15.10
2018-11-07T23:14:32.417Z,12.37
2018-11-07T23:17:00.889Z,14.07
2018-11-07T23:19:29.422Z,11.03
2018-11-07T23:21:57.837Z,12.83
2018-11-07T23:24:26.332Z,14.13
2018-11-07T23:26:54.812Z,17.43
2018-11-07T23:29:23.253Z,16.00
2018-11-07T23:31:51.731Z,11.80
2018-11-07T23:34:20.195Z,14.90
2018-11-07T23:36:48.649Z,16.73
2018-11-07T23:39:17.113Z,17.83
2018-11-07T23:41:45.555Z,19.80
2018-11-07T23:44:14.019Z,20.07
2018-11-07T23:46:42.536Z,23.80
2018-11-07T23:49:10.991Z,19.23
2018-11-07T23:51:48.219Z,19.30
2018-11-07T23:54:17.932Z,26.10
2018-11-07T23:56:46.388Z,26.23
2018-11-07T23:59:14.855Z,22.23
